createdAt,value
2022-12-16T00:01:13.847Z,1.30
2022-12-16T00:03:44.253Z,1.28
2022-12-16T00:06:12.062Z,1.38
2022-12-16T00:08:40.977Z,1.52
2022-12-16T00:11:09.768Z,1.45
2022-12-16T00:13:40.275Z,1.51
2022-12-16T00:16:11.325Z,1.55
2022-12-16T00:18:39.280Z,1.68
2022-12-16T00:21:07.300Z,1.39
2022-12-16T00:23:36.507Z,1.66
2022-12-16T00:26:04.438Z,1.85
2022-12-16T00:28:32.377Z,1.88
2022-12-16T00:31:00.026Z,1.77
2022-12-16T00:33:29.622Z,1.88
2022-12-16T00:35:58.139Z,1.91
2022-12-16T00:38:27.582Z,2.13
2022-12-16T00:40:55.287Z,2.12
2022-12-16T00:43:22.984Z,1.57
2022-12-16T00:45:51.979Z,2.08
2022-12-16T00:48:22.864Z,2.20
2022-12-16T00:50:52.939Z,2.38
2022-12-16T00:53:23.873Z,2.15
2022-12-16T00:55:51.799Z,2.28
2022-12-16T00:58:19.642Z,2.09
2022-12-16T01:00:47.427Z,1.58
2022-12-16T01:03:21.080Z,1.94
2022-12-16T01:05:49.201Z,2.19
2022-12-16T01:08:18.203Z,2.12
2022-12-16T01:10:51.639Z,1.55
2022-12-16T01:13:20.161Z,1.56
2022-12-16T01:15:47.980Z,1.34
2022-12-16T01:18:16.053Z,1.97
2022-12-16T01:20:43.820Z,1.99
2022-12-16T01:23:11.707Z,1.37
2022-12-16T01:25:40.695Z,1.91
2022-12-16T01:28:08.457Z,2.13
2022-12-16T01:30:36.176Z,1.69
2022-12-16T01:33:03.917Z,1.54
2022-12-16T01:38:19.562Z,1.77
2022-12-16T01:40:48.653Z,1.88
2022-12-16T01:43:26.410Z,1.74
2022-12-16T01:45:55.513Z,1.70
2022-12-16T01:48:31.646Z,2.17
2022-12-16T01:51:03.112Z,1.61
2022-12-16T01:53:31.363Z,2.09
2022-12-16T01:56:01.389Z,1.61
2022-12-16T01:58:31.615Z,1.42
2022-12-16T02:00:59.642Z,1.31
2022-12-16T02:03:27.443Z,1.32
2022-12-16T02:05:55.193Z,2.15
2022-12-16T02:08:23.179Z,1.15
2022-12-16T02:11:16.172Z,1.30
2022-12-16T02:13:59.429Z,1.35
2022-12-16T02:16:31.783Z,1.23
2022-12-16T02:19:04.060Z,1.32
2022-12-16T02:21:48.767Z,1.80
2022-12-16T02:24:47.735Z,1.77
2022-12-16T02:27:47.363Z,1.76
2022-12-16T02:30:42.170Z,1.84
2022-12-16T02:33:18.426Z,1.81
2022-12-16T02:35:49.320Z,1.83
2022-12-16T02:38:23.578Z,1.84
2022-12-16T02:40:54.072Z,1.40
2022-12-16T02:43:34.999Z,1.60
2022-12-16T02:46:05.424Z,1.74
2022-12-16T02:48:33.138Z,1.72
2022-12-16T02:51:01.034Z,1.76
2022-12-16T02:53:29.537Z,1.58
2022-12-16T02:56:05.131Z,1.04
2022-12-16T02:58:37.485Z,1.50
2022-12-16T03:01:11.745Z,0.84
2022-12-16T03:03:45.877Z,1.02
2022-12-16T03:06:15.299Z,1.28
2022-12-16T03:08:45.905Z,1.48
2022-12-16T03:11:13.918Z,1.56
2022-12-16T03:13:44.647Z,1.14
2022-12-16T03:16:15.709Z,0.91
2022-12-16T03:18:45.680Z,0.84
2022-12-16T03:21:15.351Z,0.74
2022-12-16T03:23:46.822Z,1.53
2022-12-16T03:26:17.382Z,1.49
2022-12-16T03:28:47.196Z,2.12
2022-12-16T03:31:21.010Z,1.92
2022-12-16T03:33:51.254Z,1.95
2022-12-16T03:36:22.495Z,1.65
2022-12-16T03:38:51.529Z,1.89
2022-12-16T03:41:21.729Z,1.93
2022-12-16T03:43:50.007Z,1.92
2022-12-16T03:46:19.588Z,2.03
2022-12-16T03:48:48.915Z,2.06
2022-12-16T03:51:16.980Z,2.14
2022-12-16T03:53:44.817Z,2.14
2022-12-16T03:56:12.718Z,1.38
2022-12-16T03:58:40.941Z,1.02
2022-12-16T04:01:10.410Z,0.75
2022-12-16T04:03:39.984Z,1.00
2022-12-16T04:06:08.431Z,1.51
2022-12-16T04:08:36.129Z,1.97
2022-12-16T04:11:21.344Z,1.95
2022-12-16T04:14:06.721Z,1.78
2022-12-16T04:16:52.126Z,1.24
2022-12-16T04:19:41.916Z,1.61
2022-12-16T04:22:31.264Z,0.93
2022-12-16T04:25:02.582Z,1.30
2022-12-16T04:27:30.312Z,1.14
2022-12-16T04:30:15.757Z,0.99
2022-12-16T04:33:03.597Z,1.34
2022-12-16T04:35:50.365Z,1.32
2022-12-16T04:38:35.253Z,1.45
2022-12-16T04:41:20.743Z,1.62
2022-12-16T04:44:14.482Z,1.67
2022-12-16T04:46:56.145Z,2.01
2022-12-16T04:49:41.601Z,1.51
2022-12-16T04:52:28.471Z,1.57
2022-12-16T04:55:13.605Z,1.87
2022-12-16T04:57:58.890Z,1.65
2022-12-16T05:00:44.058Z,1.63
2022-12-16T05:03:30.371Z,1.27
2022-12-16T05:06:15.607Z,1.46
2022-12-16T05:09:02.154Z,1.70
2022-12-16T05:11:50.007Z,1.38
2022-12-16T05:14:35.334Z,1.60
2022-12-16T05:17:20.691Z,1.58
2022-12-16T05:20:06.109Z,1.84
2022-12-16T05:22:51.276Z,2.07
2022-12-16T05:25:37.887Z,2.30
2022-12-16T05:28:23.312Z,1.69
2022-12-16T05:31:08.766Z,1.68
2022-12-16T05:33:54.160Z,1.91
2022-12-16T05:36:39.557Z,2.10
2022-12-16T05:39:24.987Z,2.15
2022-12-16T05:42:11.564Z,1.94
2022-12-16T05:44:56.921Z,1.99
2022-12-16T05:47:42.293Z,2.04
2022-12-16T05:50:28.137Z,2.02
2022-12-16T05:53:14.236Z,0.87
2022-12-16T05:56:00.052Z,1.07
2022-12-16T05:58:47.601Z,0.74
2022-12-16T06:01:33.680Z,1.06
2022-12-16T06:04:18.863Z,1.03
2022-12-16T06:07:04.327Z,1.03
2022-12-16T06:09:56.163Z,1.72
2022-12-16T06:12:41.993Z,1.95
2022-12-16T06:15:29.176Z,2.08
2022-12-16T06:18:14.614Z,2.09
2022-12-16T06:21:14.501Z,2.11
2022-12-16T06:23:59.836Z,2.19
2022-12-16T06:26:44.839Z,2.31
2022-12-16T06:29:30.100Z,2.13
2022-12-16T06:32:16.913Z,2.19
2022-12-16T06:35:02.132Z,2.15
2022-12-16T06:37:47.573Z,2.36
2022-12-16T06:40:33.111Z,2.34
2022-12-16T06:43:18.455Z,2.50
2022-12-16T06:46:03.841Z,2.66
2022-12-16T06:48:50.452Z,2.03
2022-12-16T06:51:35.881Z,2.39
2022-12-16T06:54:21.283Z,1.97
2022-12-16T06:57:06.684Z,2.01
2022-12-16T06:59:52.061Z,1.67
2022-12-16T07:02:37.418Z,1.94
2022-12-16T07:05:29.988Z,2.29
2022-12-16T07:08:15.496Z,2.03
2022-12-16T07:11:15.292Z,2.48
2022-12-16T07:14:01.773Z,2.29
2022-12-16T07:16:47.304Z,2.62
2022-12-16T07:19:32.433Z,2.46
2022-12-16T07:22:19.124Z,2.38
2022-12-16T07:25:04.508Z,2.38
2022-12-16T07:27:49.820Z,2.49
2022-12-16T07:30:35.111Z,2.68
2022-12-16T07:33:20.360Z,2.32
2022-12-16T07:36:05.863Z,2.30
2022-12-16T07:38:52.622Z,2.33
2022-12-16T07:41:37.831Z,2.12
2022-12-16T07:44:23.175Z,2.28
2022-12-16T07:47:08.536Z,2.30
2022-12-16T07:49:56.126Z,2.50
2022-12-16T07:52:41.729Z,2.53
2022-12-16T07:55:28.409Z,2.54
2022-12-16T07:58:13.782Z,2.37
2022-12-16T08:00:59.294Z,2.51
2022-12-16T08:03:46.856Z,2.61
2022-12-16T08:06:35.932Z,2.33
2022-12-16T08:09:24.128Z,1.87
2022-12-16T08:12:10.727Z,2.45
2022-12-16T08:14:56.110Z,2.52
2022-12-16T08:17:41.379Z,2.94
2022-12-16T08:20:26.921Z,3.03
2022-12-16T08:23:27.081Z,3.10
2022-12-16T08:26:12.049Z,3.05
2022-12-16T08:29:09.332Z,3.13
2022-12-16T08:31:59.118Z,3.19
2022-12-16T08:34:44.524Z,2.83
2022-12-16T08:37:26.128Z,2.36
2022-12-16T08:40:34.412Z,2.32
2022-12-16T08:43:16.971Z,2.66
2022-12-16T08:46:03.790Z,2.33
2022-12-16T08:48:49.048Z,2.23
2022-12-16T08:51:34.546Z,2.29
2022-12-16T08:54:19.921Z,2.50
2022-12-16T08:57:05.273Z,2.93
2022-12-16T08:59:50.601Z,2.86
2022-12-16T09:02:37.849Z,2.48
2022-12-16T09:05:23.815Z,2.93
2022-12-16T09:08:09.251Z,3.34
2022-12-16T09:10:55.221Z,3.48
2022-12-16T09:13:40.520Z,3.16
2022-12-16T09:16:26.572Z,3.64
2022-12-16T09:19:13.174Z,3.62
2022-12-16T09:21:58.440Z,3.57
2022-12-16T09:24:43.753Z,3.68
2022-12-16T09:27:29.165Z,3.67
2022-12-16T09:30:14.481Z,3.83
2022-12-16T09:33:00.153Z,3.64
2022-12-16T09:35:46.739Z,3.28
2022-12-16T09:38:32.144Z,3.51
2022-12-16T09:41:47.552Z,3.88
2022-12-16T09:44:39.765Z,3.85
2022-12-16T09:47:31.250Z,3.90
2022-12-16T09:50:16.436Z,4.06
2022-12-16T09:53:04.656Z,4.06
2022-12-16T09:55:51.676Z,4.07
2022-12-16T09:58:39.484Z,3.95
2022-12-16T10:01:25.012Z,3.58
2022-12-16T10:04:10.395Z,3.48
2022-12-16T10:07:00.479Z,3.36
2022-12-16T10:09:49.408Z,3.08
2022-12-16T10:12:43.365Z,2.66
2022-12-16T10:15:35.831Z,3.11
2022-12-16T10:18:24.633Z,2.86
2022-12-16T10:21:10.807Z,3.65
2022-12-16T10:24:01.407Z,3.91
2022-12-16T10:27:03.917Z,3.80
2022-12-16T10:29:50.219Z,4.08
2022-12-16T10:32:38.598Z,3.86
2022-12-16T10:35:37.064Z,3.82
2022-12-16T10:38:24.873Z,4.02
2022-12-16T10:41:10.168Z,4.25
2022-12-16T10:43:59.308Z,4.40
2022-12-16T10:46:47.160Z,4.61
2022-12-16T10:49:34.635Z,4.45
2022-12-16T10:52:20.939Z,4.24
2022-12-16T10:55:13.899Z,3.99
2022-12-16T10:58:09.906Z,4.20
2022-12-16T11:01:02.735Z,3.98
2022-12-16T11:03:49.725Z,3.66
2022-12-16T11:06:38.759Z,3.81
2022-12-16T11:09:44.411Z,4.30
2022-12-16T11:12:38.985Z,4.37
2022-12-16T11:15:41.652Z,4.52
2022-12-16T11:18:32.745Z,4.30
2022-12-16T11:21:39.487Z,4.53
2022-12-16T11:24:33.471Z,3.99
2022-12-16T11:27:19.885Z,3.97
2022-12-16T11:30:09.449Z,3.71
2022-12-16T11:32:55.940Z,4.31
2022-12-16T11:35:45.652Z,4.25
2022-12-16T11:38:37.566Z,3.82
2022-12-16T11:41:19.578Z,4.86
2022-12-16T11:44:07.800Z,4.48
2022-12-16T11:46:53.316Z,4.62
2022-12-16T11:49:45.086Z,4.85
2022-12-16T11:52:37.290Z,4.85
2022-12-16T11:56:02.788Z,4.68
2022-12-16T11:58:40.077Z,4.57
2022-12-16T12:01:31.367Z,4.18
2022-12-16T12:04:16.948Z,4.57
2022-12-16T12:07:16.172Z,4.81
2022-12-16T12:10:07.966Z,4.77
2022-12-16T12:12:58.772Z,5.04
2022-12-16T12:15:51.249Z,4.79
2022-12-16T12:18:43.128Z,4.66
2022-12-16T12:21:34.368Z,4.91
2022-12-16T12:24:26.744Z,4.89
2022-12-16T12:27:20.014Z,4.74
2022-12-16T12:30:18.080Z,5.13
2022-12-16T12:33:12.093Z,5.30
2022-12-16T12:36:09.431Z,4.98
2022-12-16T12:39:00.383Z,4.76
2022-12-16T12:41:47.493Z,4.42
2022-12-16T12:44:48.636Z,4.78
2022-12-16T12:47:36.037Z,4.72
2022-12-16T12:50:26.896Z,4.43
2022-12-16T12:53:28.648Z,4.41
2022-12-16T12:56:21.022Z,4.30
2022-12-16T12:59:13.726Z,4.50
2022-12-16T13:02:07.417Z,4.97
2022-12-16T13:04:52.747Z,4.22
2022-12-16T13:07:37.941Z,4.35
2022-12-16T13:10:59.456Z,3.69
2022-12-16T13:13:51.004Z,3.81
2022-12-16T13:17:25.983Z,3.97
2022-12-16T13:20:16.796Z,4.06
2022-12-16T13:23:03.053Z,4.69
2022-12-16T13:25:52.382Z,4.72
2022-12-16T13:28:43.335Z,4.74
2022-12-16T13:31:28.866Z,4.75
2022-12-16T13:34:17.484Z,4.81
2022-12-16T13:37:04.247Z,4.58
2022-12-16T13:39:48.832Z,4.54
2022-12-16T13:42:55.790Z,4.58
2022-12-16T13:45:50.356Z,4.60
2022-12-16T13:48:46.017Z,4.83
2022-12-16T13:52:05.048Z,4.78
2022-12-16T13:54:54.793Z,3.57
2022-12-16T13:57:42.590Z,3.99
2022-12-16T14:00:36.903Z,4.87
2022-12-16T14:03:23.777Z,4.67
2022-12-16T14:06:09.733Z,4.60
2022-12-16T14:08:59.778Z,4.02
2022-12-16T14:11:55.973Z,3.65
2022-12-16T14:14:42.134Z,3.28
2022-12-16T14:17:33.954Z,3.55
2022-12-16T14:20:22.834Z,4.02
2022-12-16T14:23:17.874Z,4.24
2022-12-16T14:26:23.540Z,4.13
2022-12-16T14:29:10.024Z,4.14
2022-12-16T14:31:57.076Z,4.31
2022-12-16T14:34:43.598Z,4.21
2022-12-16T14:37:31.868Z,4.06
2022-12-16T14:40:17.178Z,3.76
2022-12-16T14:43:13.947Z,3.54
2022-12-16T14:46:07.321Z,4.00
2022-12-16T14:48:53.793Z,4.06
2022-12-16T14:51:43.784Z,3.87
2022-12-16T14:54:43.994Z,3.59
2022-12-16T14:57:31.751Z,4.08
2022-12-16T15:00:22.727Z,4.15
2022-12-16T15:03:10.351Z,4.29
2022-12-16T15:05:56.340Z,4.14
2022-12-16T15:08:42.107Z,4.25
2022-12-16T15:11:34.920Z,4.00
2022-12-16T15:14:21.063Z,3.93
2022-12-16T15:17:08.662Z,3.90
2022-12-16T15:20:03.149Z,3.87
2022-12-16T15:22:48.766Z,3.55
2022-12-16T15:25:39.340Z,3.64
2022-12-16T15:28:41.619Z,3.71
2022-12-16T15:31:34.256Z,3.69
2022-12-16T15:34:54.744Z,4.04
2022-12-16T15:37:43.636Z,3.80
2022-12-16T15:40:40.768Z,3.76
2022-12-16T15:43:39.221Z,3.58
2022-12-16T15:46:24.847Z,3.96
2022-12-16T15:49:10.800Z,3.75
2022-12-16T15:52:02.584Z,3.52
2022-12-16T15:54:49.195Z,3.13
2022-12-16T15:57:45.437Z,3.16
2022-12-16T16:00:47.343Z,3.57
2022-12-16T16:03:37.824Z,3.54
2022-12-16T16:06:24.255Z,3.76
2022-12-16T16:09:09.758Z,3.87
2022-12-16T16:11:56.372Z,4.33
2022-12-16T16:14:41.770Z,4.08
2022-12-16T16:17:35.397Z,3.57
2022-12-16T16:20:20.736Z,4.14
2022-12-16T16:23:05.898Z,3.98
2022-12-16T16:25:51.087Z,3.77
2022-12-16T16:28:37.531Z,4.07
2022-12-16T16:31:22.981Z,4.32
2022-12-16T16:34:08.511Z,4.45
2022-12-16T16:36:53.968Z,4.52
2022-12-16T16:39:40.371Z,4.23
2022-12-16T16:42:26.775Z,3.94
2022-12-16T16:45:13.474Z,4.24
2022-12-16T16:47:59.010Z,4.38
2022-12-16T16:50:44.195Z,4.37
2022-12-16T16:53:33.043Z,4.14
2022-12-16T16:56:20.326Z,3.88
2022-12-16T16:59:05.911Z,3.89
2022-12-16T17:01:52.679Z,3.64
2022-12-16T17:04:37.889Z,3.37
2022-12-16T17:07:23.101Z,3.78
2022-12-16T17:10:08.549Z,4.18
2022-12-16T17:12:57.493Z,3.69
2022-12-16T17:15:48.861Z,3.95
2022-12-16T17:18:36.545Z,3.93
2022-12-16T17:21:23.185Z,3.85
2022-12-16T17:24:08.539Z,4.26
2022-12-16T17:26:53.892Z,4.43
2022-12-16T17:29:41.152Z,4.41
2022-12-16T17:32:27.071Z,4.17
2022-12-16T17:35:13.661Z,4.25
2022-12-16T17:37:58.949Z,4.46
2022-12-16T17:40:44.236Z,4.48
2022-12-16T17:43:29.737Z,4.46
2022-12-16T17:46:16.908Z,4.24
2022-12-16T17:49:02.399Z,3.95
2022-12-16T17:51:49.125Z,4.06
2022-12-16T17:54:34.470Z,3.59
2022-12-16T17:57:19.967Z,3.13
2022-12-16T18:00:05.285Z,3.34
2022-12-16T18:02:50.877Z,2.89
2022-12-16T18:05:41.263Z,2.61
2022-12-16T18:08:31.090Z,2.99
2022-12-16T18:11:17.000Z,3.58
2022-12-16T18:14:02.344Z,4.12
2022-12-16T18:16:47.764Z,4.28
2022-12-16T18:19:34.438Z,4.15
2022-12-16T18:22:20.302Z,4.19
2022-12-16T18:25:06.888Z,4.01
2022-12-16T18:28:03.748Z,3.66
2022-12-16T18:30:49.096Z,3.85
2022-12-16T18:33:34.823Z,4.14
2022-12-16T18:36:20.007Z,4.04
2022-12-16T18:39:05.363Z,4.24
2022-12-16T18:41:51.221Z,4.12
2022-12-16T18:44:36.575Z,4.08
2022-12-16T18:47:22.070Z,4.18
2022-12-16T18:50:07.300Z,4.17
2022-12-16T18:52:52.624Z,4.26
2022-12-16T18:55:37.761Z,3.88
2022-12-16T19:01:30.770Z,4.41
2022-12-16T19:04:16.767Z,4.60
2022-12-16T19:07:02.120Z,4.42
2022-12-16T19:09:47.549Z,4.36
2022-12-16T19:12:32.784Z,4.34
2022-12-16T19:15:19.404Z,3.97
2022-12-16T19:18:04.865Z,4.03
2022-12-16T19:20:50.124Z,3.91
2022-12-16T19:23:35.904Z,3.82
2022-12-16T19:26:21.360Z,4.10
2022-12-16T19:29:08.989Z,3.78
2022-12-16T19:31:56.195Z,3.77
2022-12-16T19:34:41.766Z,3.52
2022-12-16T19:37:27.143Z,3.80
2022-12-16T19:40:12.487Z,3.82
2022-12-16T19:42:57.747Z,3.61
2022-12-16T19:45:43.205Z,3.27
2022-12-16T19:48:29.875Z,3.49
2022-12-16T19:51:15.803Z,3.32
2022-12-16T19:54:01.664Z,3.62
2022-12-16T19:56:47.453Z,3.63
2022-12-16T19:59:32.842Z,3.82
2022-12-16T20:02:18.313Z,3.57
2022-12-16T20:05:04.733Z,3.87
2022-12-16T20:07:50.402Z,3.18
2022-12-16T20:10:36.931Z,3.01
2022-12-16T20:13:30.088Z,3.56
2022-12-16T20:16:19.557Z,3.39
2022-12-16T20:19:05.021Z,3.59
2022-12-16T20:21:56.392Z,3.88
2022-12-16T20:24:42.217Z,3.56
2022-12-16T20:27:28.047Z,3.16
2022-12-16T20:30:13.424Z,2.58
2022-12-16T20:33:04.119Z,2.93
2022-12-16T20:35:49.595Z,2.88
2022-12-16T20:38:36.411Z,3.12
2022-12-16T20:41:22.904Z,2.88
2022-12-16T20:44:08.364Z,3.39
2022-12-16T20:49:59.671Z,3.58
2022-12-16T20:52:44.840Z,3.77
2022-12-16T20:55:31.597Z,3.65
2022-12-16T20:58:17.030Z,3.92
2022-12-16T21:01:02.153Z,3.79
2022-12-16T21:03:47.344Z,3.39
2022-12-16T21:06:32.485Z,3.55
2022-12-16T21:09:17.962Z,3.48
2022-12-16T21:12:04.419Z,3.34
2022-12-16T21:14:49.883Z,3.44
2022-12-16T21:17:35.198Z,2.33
2022-12-16T21:20:20.417Z,3.29
2022-12-16T21:23:05.993Z,3.41
2022-12-16T21:25:51.200Z,2.92
2022-12-16T21:28:38.453Z,3.44
2022-12-16T21:31:23.983Z,3.34
2022-12-16T21:34:11.189Z,3.26
2022-12-16T21:36:56.702Z,3.52
2022-12-16T21:39:42.120Z,3.47
2022-12-16T21:42:33.152Z,3.28
2022-12-16T21:45:21.929Z,2.33
2022-12-16T21:48:07.357Z,2.40
2022-12-16T21:50:52.631Z,2.29
2022-12-16T21:53:39.026Z,2.76
2022-12-16T21:56:24.297Z,2.75
2022-12-16T21:59:09.537Z,3.36
2022-12-16T22:01:56.522Z,3.35
2022-12-16T22:04:42.127Z,3.27
2022-12-16T22:07:27.432Z,3.47
2022-12-16T22:10:12.800Z,3.56
2022-12-16T22:12:58.052Z,3.39
2022-12-16T22:15:45.720Z,3.21
2022-12-16T22:18:32.473Z,2.77
2022-12-16T22:21:19.260Z,2.73
2022-12-16T22:24:04.761Z,2.51
2022-12-16T22:26:50.142Z,2.99
2022-12-16T22:29:35.660Z,2.86
2022-12-16T22:32:20.809Z,3.42
2022-12-16T22:35:07.424Z,3.55
2022-12-16T22:37:52.814Z,3.61
2022-12-16T22:40:41.684Z,3.17
2022-12-16T22:43:26.982Z,3.27
2022-12-16T22:46:17.970Z,2.74
2022-12-16T22:49:05.173Z,2.46
2022-12-16T22:51:52.359Z,3.01
2022-12-16T22:54:39.145Z,3.11
2022-12-16T22:57:24.436Z,3.10
2022-12-16T23:00:18.418Z,2.90
2022-12-16T23:03:03.903Z,3.13
2022-12-16T23:05:49.241Z,3.16
2022-12-16T23:08:35.993Z,3.17
2022-12-16T23:11:21.259Z,2.92
2022-12-16T23:14:06.582Z,2.36
2022-12-16T23:16:51.827Z,2.67
2022-12-16T23:19:38.549Z,3.34
2022-12-16T23:22:23.923Z,2.89
2022-12-16T23:25:10.591Z,3.07
2022-12-16T23:27:55.946Z,2.90
2022-12-16T23:30:42.311Z,2.94
2022-12-16T23:33:27.665Z,3.06
2022-12-16T23:36:13.121Z,3.39
2022-12-16T23:38:58.599Z,3.23
2022-12-16T23:41:45.208Z,3.09
2022-12-16T23:44:30.709Z,3.03
2022-12-16T23:47:15.976Z,3.23
2022-12-16T23:50:01.328Z,3.21
2022-12-16T23:52:46.730Z,2.93
2022-12-16T23:55:31.943Z,3.09
2022-12-16T23:58:19.575Z,3.21
